createdAt,value
2023-03-16T00:00:56.656Z,98433.00
2023-03-16T00:03:24.414Z,98439.00
2023-03-16T00:05:55.032Z,98444.00
2023-03-16T00:08:22.675Z,98439.00
2023-03-16T00:10:50.367Z,98441.00
2023-03-16T00:13:19.415Z,98448.00
2023-03-16T00:15:51.187Z,98444.00
2023-03-16T00:18:18.799Z,98440.00
2023-03-16T00:20:46.488Z,98436.00
2023-03-16T00:23:15.502Z,98439.00
2023-03-16T00:25:43.137Z,98442.00
2023-03-16T00:28:13.998Z,98443.00
2023-03-16T00:30:41.668Z,98437.00
2023-03-16T00:33:10.863Z,98439.00
2023-03-16T00:35:38.792Z,98424.00
2023-03-16T00:38:06.489Z,98432.00
2023-03-16T00:40:35.444Z,98433.00
2023-03-16T00:43:03.080Z,98438.00
2023-03-16T00:45:30.733Z,98443.00
2023-03-16T00:47:58.367Z,98443.00
2023-03-16T00:50:27.188Z,98434.00
2023-03-16T00:52:55.022Z,98447.00
2023-03-16T00:55:22.782Z,98439.00
2023-03-16T00:57:51.763Z,98431.00
2023-03-16T01:00:21.179Z,98437.00
2023-03-16T01:02:49.283Z,98433.00
2023-03-16T01:05:17.083Z,98429.00
2023-03-16T01:07:45.296Z,98425.00
2023-03-16T01:10:14.245Z,98422.00
2023-03-16T01:12:42.026Z,98424.00
2023-03-16T01:15:12.059Z,98423.00
2023-03-16T01:17:39.832Z,98427.00
2023-03-16T01:20:11.942Z,98426.00
2023-03-16T01:22:39.744Z,98419.00
2023-03-16T01:25:08.000Z,98420.00
2023-03-16T01:27:36.493Z,98425.00
2023-03-16T01:30:05.194Z,98419.00
2023-03-16T01:32:34.367Z,98424.00
2023-03-16T01:35:01.960Z,98426.00
2023-03-16T01:37:29.584Z,98426.00
2023-03-16T01:39:57.181Z,98430.00
2023-03-16T01:42:25.092Z,98444.00
2023-03-16T01:44:55.529Z,98436.00
2023-03-16T01:47:23.911Z,98435.00
2023-03-16T01:49:56.903Z,98429.00
2023-03-16T01:52:27.121Z,98429.00
2023-03-16T01:54:59.787Z,98426.00
2023-03-16T01:57:30.511Z,98427.00
2023-03-16T02:00:20.052Z,98433.00
2023-03-16T02:02:50.372Z,98428.00
2023-03-16T02:05:24.171Z,98425.00
2023-03-16T02:07:58.582Z,98417.00
2023-03-16T02:10:30.034Z,98425.00
2023-03-16T02:12:58.704Z,98409.00
2023-03-16T02:15:27.321Z,98410.00
2023-03-16T02:17:55.295Z,98411.00
2023-03-16T02:20:37.604Z,98410.00
2023-03-16T02:23:06.810Z,98413.00
2023-03-16T02:25:41.606Z,98420.00
2023-03-16T02:28:16.497Z,98418.00
2023-03-16T02:30:46.059Z,98415.00
2023-03-16T02:33:15.276Z,98420.00
2023-03-16T02:35:43.027Z,98425.00
2023-03-16T02:38:10.953Z,98423.00
2023-03-16T02:40:39.126Z,98417.00
2023-03-16T02:43:10.840Z,98417.00
2023-03-16T02:45:43.597Z,98415.00
2023-03-16T02:48:18.719Z,98422.00
2023-03-16T02:50:48.328Z,98409.00
2023-03-16T02:53:16.555Z,98415.00
2023-03-16T02:55:44.941Z,98412.00
2023-03-16T02:58:12.874Z,98410.00
2023-03-16T03:00:42.293Z,98411.00
2023-03-16T03:03:10.466Z,98410.00
2023-03-16T03:05:39.496Z,98408.00
2023-03-16T03:08:08.146Z,98421.00
2023-03-16T03:10:35.798Z,98410.00
2023-03-16T03:13:03.495Z,98401.00
2023-03-16T03:15:31.094Z,98393.00
2023-03-16T03:17:58.751Z,98398.00
2023-03-16T03:20:26.910Z,98401.00
2023-03-16T03:22:56.024Z,98406.00
2023-03-16T03:25:24.293Z,98396.00
2023-03-16T03:27:54.467Z,98400.00
2023-03-16T03:30:24.632Z,98399.00
2023-03-16T03:32:53.346Z,98406.00
2023-03-16T03:35:22.311Z,98402.00
2023-03-16T03:37:50.669Z,98407.00
2023-03-16T03:40:21.201Z,98412.00
2023-03-16T03:42:49.409Z,98419.00
2023-03-16T03:45:17.409Z,98409.00
2023-03-16T03:47:45.545Z,98414.00
2023-03-16T03:50:14.366Z,98414.00
2023-03-16T03:52:42.261Z,98420.00
2023-03-16T03:55:10.943Z,98428.00
2023-03-16T03:57:40.057Z,98411.00
2023-03-16T04:00:11.340Z,98419.00
2023-03-16T04:03:10.498Z,98411.00
2023-03-16T04:05:38.252Z,98409.00
2023-03-16T04:08:06.426Z,98399.00
2023-03-16T04:10:34.247Z,98404.00
2023-03-16T04:13:03.330Z,98413.00
2023-03-16T04:15:32.923Z,98413.00
2023-03-16T04:18:00.690Z,98406.00
2023-03-16T04:20:29.887Z,98409.00
2023-03-16T04:22:59.240Z,98400.00
2023-03-16T04:25:28.262Z,98397.00
2023-03-16T04:27:56.267Z,98394.00
2023-03-16T04:30:25.346Z,98387.00
2023-03-16T04:32:53.245Z,98380.00
2023-03-16T04:35:22.146Z,98386.00
2023-03-16T04:37:49.878Z,98383.00
2023-03-16T04:40:17.737Z,98380.00
2023-03-16T04:42:46.208Z,98372.00
2023-03-16T04:45:15.091Z,98376.00
2023-03-16T04:47:44.151Z,98375.00
2023-03-16T04:50:13.151Z,98372.00
2023-03-16T04:52:41.208Z,98386.00
2023-03-16T04:55:09.448Z,98379.00
2023-03-16T04:57:37.152Z,98380.00
2023-03-16T05:00:11.709Z,98380.00
2023-03-16T05:02:39.564Z,98379.00
2023-03-16T05:05:09.222Z,98371.00
2023-03-16T05:07:36.863Z,98371.00
2023-03-16T05:10:04.929Z,98368.00
2023-03-16T05:12:32.559Z,98379.00
2023-03-16T05:15:00.252Z,98377.00
2023-03-16T05:17:28.012Z,98383.00
2023-03-16T05:19:55.646Z,98381.00
2023-03-16T05:22:25.774Z,98373.00
2023-03-16T05:24:53.503Z,98381.00
2023-03-16T05:27:21.594Z,98381.00
2023-03-16T05:29:49.286Z,98377.00
2023-03-16T05:32:17.657Z,98371.00
2023-03-16T05:34:45.331Z,98379.00
2023-03-16T05:37:13.246Z,98378.00
2023-03-16T05:39:43.258Z,98373.00
2023-03-16T05:42:11.232Z,98377.00
2023-03-16T05:44:39.037Z,98368.00
2023-03-16T05:47:06.981Z,98375.00
2023-03-16T05:49:35.233Z,98375.00
2023-03-16T05:52:04.170Z,98378.00
2023-03-16T05:54:31.819Z,98366.00
2023-03-16T05:57:00.854Z,98368.00
2023-03-16T05:59:28.497Z,98373.00
2023-03-16T06:01:56.183Z,98378.00
2023-03-16T06:04:23.922Z,98385.00
2023-03-16T06:06:51.664Z,98379.00
2023-03-16T06:09:19.350Z,98378.00
2023-03-16T06:11:47.036Z,98375.00
2023-03-16T06:14:16.037Z,98382.00
2023-03-16T06:16:43.795Z,98381.00
2023-03-16T06:19:11.626Z,98390.00
2023-03-16T06:21:39.336Z,98389.00
2023-03-16T06:24:09.087Z,98395.00
2023-03-16T06:26:37.002Z,98400.00
2023-03-16T06:29:04.776Z,98399.00
2023-03-16T06:31:34.118Z,98396.00
2023-03-16T06:34:02.092Z,98394.00
2023-03-16T06:36:29.798Z,98394.00
2023-03-16T06:38:57.434Z,98383.00
2023-03-16T06:41:25.281Z,98389.00
2023-03-16T06:43:52.944Z,98409.00
2023-03-16T06:46:21.201Z,98404.00
2023-03-16T06:48:50.280Z,98397.00
2023-03-16T06:51:18.004Z,98407.00
2023-03-16T06:53:45.648Z,98401.00
2023-03-16T06:56:13.578Z,98398.00
2023-03-16T06:58:41.811Z,98394.00
2023-03-16T07:01:09.541Z,98398.00
2023-03-16T07:03:37.184Z,98402.00
2023-03-16T07:06:06.964Z,98402.00
2023-03-16T07:08:34.597Z,98395.00
2023-03-16T07:11:02.448Z,98400.00
2023-03-16T07:13:30.185Z,98403.00
2023-03-16T07:15:57.840Z,98403.00
2023-03-16T07:18:26.275Z,98411.00
2023-03-16T07:20:54.101Z,98414.00
2023-03-16T07:23:24.399Z,98406.00
2023-03-16T07:25:52.711Z,98413.00
2023-03-16T07:28:20.628Z,98406.00
2023-03-16T07:31:03.060Z,98414.00
2023-03-16T07:33:32.192Z,98410.00
2023-03-16T07:35:59.970Z,98403.00
2023-03-16T07:38:29.037Z,98419.00
2023-03-16T07:40:56.802Z,98410.00
2023-03-16T07:43:24.728Z,98415.00
2023-03-16T07:45:53.641Z,98416.00
2023-03-16T07:48:21.680Z,98415.00
2023-03-16T07:50:51.372Z,98410.00
2023-03-16T07:53:19.489Z,98405.00
2023-03-16T07:55:48.479Z,98407.00
2023-03-16T07:58:16.125Z,98407.00
2023-03-16T08:00:43.809Z,98404.00
2023-03-16T08:03:11.759Z,98397.00
2023-03-16T08:05:39.456Z,98407.00
2023-03-16T08:08:09.902Z,98416.00
2023-03-16T08:10:37.590Z,98413.00
2023-03-16T08:13:06.741Z,98417.00
2023-03-16T08:15:35.191Z,98403.00
2023-03-16T08:18:03.380Z,98405.00
2023-03-16T08:20:32.015Z,98405.00
2023-03-16T08:23:00.052Z,98408.00
2023-03-16T08:25:27.841Z,98413.00
2023-03-16T08:27:55.867Z,98406.00
2023-03-16T08:30:25.523Z,98401.00
2023-03-16T08:32:53.203Z,98415.00
2023-03-16T08:35:20.879Z,98404.00
2023-03-16T08:37:49.506Z,98396.00
2023-03-16T08:40:17.719Z,98406.00
2023-03-16T08:42:45.738Z,98406.00
2023-03-16T08:45:14.814Z,98397.00
2023-03-16T08:47:44.452Z,98395.00
2023-03-16T08:50:14.066Z,98391.00
2023-03-16T08:52:42.778Z,98396.00
2023-03-16T08:55:11.582Z,98397.00
2023-03-16T08:57:39.757Z,98392.00
2023-03-16T09:00:14.088Z,98397.00
2023-03-16T09:02:43.754Z,98394.00
2023-03-16T09:05:14.984Z,98394.00
2023-03-16T09:07:43.723Z,98391.00
2023-03-16T09:10:16.006Z,98392.00
2023-03-16T09:12:44.380Z,98396.00
2023-03-16T09:15:13.809Z,98400.00
2023-03-16T09:17:45.125Z,98402.00
2023-03-16T09:20:22.395Z,98394.00
2023-03-16T09:22:53.623Z,98391.00
2023-03-16T09:25:21.281Z,98396.00
2023-03-16T09:27:48.912Z,98396.00
2023-03-16T09:30:18.131Z,98392.00
2023-03-16T09:32:48.949Z,98395.00
2023-03-16T09:35:16.858Z,98391.00
2023-03-16T09:38:01.036Z,98394.00
2023-03-16T09:40:33.473Z,98384.00
2023-03-16T09:43:25.552Z,98392.00
2023-03-16T09:45:59.902Z,98392.00
2023-03-16T09:48:31.652Z,98384.00
2023-03-16T09:51:00.909Z,98393.00
2023-03-16T09:53:31.173Z,98387.00
2023-03-16T09:56:03.292Z,98380.00
2023-03-16T09:58:32.242Z,98383.00
2023-03-16T10:01:09.964Z,98387.00
2023-03-16T10:04:00.545Z,98389.00
2023-03-16T10:06:29.174Z,98383.00
2023-03-16T10:09:06.906Z,98385.00
2023-03-16T10:11:39.201Z,98381.00
2023-03-16T10:14:17.559Z,98379.00
2023-03-16T10:16:50.497Z,98368.00
2023-03-16T10:19:23.278Z,98360.00
2023-03-16T10:21:53.216Z,98361.00
2023-03-16T10:24:34.215Z,98358.00
2023-03-16T10:27:04.717Z,98357.00
2023-03-16T10:29:37.403Z,98351.00
2023-03-16T10:32:14.157Z,98347.00
2023-03-16T10:34:45.996Z,98357.00
2023-03-16T10:37:15.202Z,98358.00
2023-03-16T10:39:43.916Z,98351.00
2023-03-16T10:42:17.781Z,98349.00
2023-03-16T10:44:46.094Z,98341.00
2023-03-16T10:47:19.730Z,98333.00
2023-03-16T10:49:51.253Z,98335.00
2023-03-16T10:52:21.576Z,98331.00
2023-03-16T10:54:51.575Z,98333.00
2023-03-16T10:57:25.438Z,98335.00
2023-03-16T10:59:55.198Z,98328.00
2023-03-16T11:02:26.926Z,98328.00
2023-03-16T11:04:56.002Z,98322.00
2023-03-16T11:07:25.611Z,98321.00
2023-03-16T11:09:55.039Z,98321.00
2023-03-16T11:12:26.388Z,98320.00
2023-03-16T11:14:54.849Z,98335.00
2023-03-16T11:17:29.392Z,98325.00
2023-03-16T11:20:12.167Z,98327.00
2023-03-16T11:22:40.807Z,98317.00
2023-03-16T11:25:15.612Z,98322.00
2023-03-16T11:27:47.118Z,98326.00
2023-03-16T11:30:20.023Z,98327.00
2023-03-16T11:32:51.106Z,98309.00
2023-03-16T11:35:23.562Z,98318.00
2023-03-16T11:38:09.359Z,98312.00
2023-03-16T11:40:49.754Z,98314.00
2023-03-16T11:43:34.386Z,98308.00
2023-03-16T11:46:11.164Z,98303.00
2023-03-16T11:48:43.556Z,98299.00
2023-03-16T11:51:26.654Z,98306.00
2023-03-16T11:54:07.833Z,98300.00
2023-03-16T11:56:40.503Z,98307.00
2023-03-16T11:59:22.590Z,98307.00
2023-03-16T12:02:01.262Z,98306.00
2023-03-16T12:04:50.889Z,98303.00
2023-03-16T12:07:35.702Z,98290.00
2023-03-16T12:10:18.734Z,98290.00
2023-03-16T12:12:57.035Z,98287.00
2023-03-16T12:15:32.428Z,98288.00
2023-03-16T12:18:06.184Z,98283.00
2023-03-16T12:20:39.365Z,98278.00
2023-03-16T12:23:13.226Z,98274.00
2023-03-16T12:25:45.976Z,98268.00
2023-03-16T12:28:19.675Z,98257.00
2023-03-16T12:30:58.160Z,98254.00
2023-03-16T12:33:38.045Z,98252.00
2023-03-16T12:36:23.748Z,98270.00
2023-03-16T12:38:58.257Z,98261.00
2023-03-16T12:41:35.107Z,98257.00
2023-03-16T12:44:12.547Z,98248.00
2023-03-16T12:46:47.921Z,98244.00
2023-03-16T12:49:16.260Z,98242.00
2023-03-16T12:51:45.509Z,98234.00
2023-03-16T12:54:25.212Z,98224.00
2023-03-16T12:56:56.101Z,98221.00
2023-03-16T12:59:25.670Z,98218.00
2023-03-16T13:01:57.808Z,98217.00
2023-03-16T13:04:32.585Z,98219.00
2023-03-16T13:07:07.737Z,98223.00
2023-03-16T13:09:42.696Z,98219.00
2023-03-16T13:12:10.611Z,98214.00
2023-03-16T13:14:40.805Z,98210.00
2023-03-16T13:17:25.037Z,98218.00
2023-03-16T13:20:04.114Z,98220.00
2023-03-16T13:22:42.614Z,98224.00
2023-03-16T13:25:22.199Z,98231.00
2023-03-16T13:27:52.983Z,98236.00
2023-03-16T13:30:23.385Z,98223.00
2023-03-16T13:32:54.560Z,98221.00
2023-03-16T13:35:27.153Z,98221.00
2023-03-16T13:37:55.587Z,98224.00
2023-03-16T13:40:27.533Z,98212.00
2023-03-16T13:42:57.897Z,98219.00
2023-03-16T13:45:30.098Z,98209.00
2023-03-16T13:47:58.938Z,98217.00
2023-03-16T13:50:27.434Z,98218.00
2023-03-16T13:53:02.939Z,98218.00
2023-03-16T13:55:35.632Z,98211.00
2023-03-16T13:58:04.213Z,98198.00
2023-03-16T14:00:34.994Z,98193.00
2023-03-16T14:03:16.217Z,98190.00
2023-03-16T14:05:44.403Z,98184.00
2023-03-16T14:08:19.687Z,98188.00
2023-03-16T14:10:49.553Z,98184.00
2023-03-16T14:13:26.401Z,98179.00
2023-03-16T14:15:55.383Z,98179.00
2023-03-16T14:18:27.693Z,98170.00
2023-03-16T14:20:56.684Z,98161.00
2023-03-16T14:23:26.320Z,98156.00
2023-03-16T14:25:55.922Z,98160.00
2023-03-16T14:28:31.762Z,98158.00
2023-03-16T14:31:05.464Z,98154.00
2023-03-16T14:33:35.536Z,98156.00
2023-03-16T14:36:13.014Z,98163.00
2023-03-16T14:38:41.796Z,98170.00
2023-03-16T14:41:22.789Z,98159.00
2023-03-16T14:43:53.203Z,98151.00
2023-03-16T14:46:29.327Z,98137.00
2023-03-16T14:49:07.751Z,98135.00
2023-03-16T14:51:41.373Z,98141.00
2023-03-16T14:54:14.071Z,98141.00
2023-03-16T14:56:43.719Z,98138.00
2023-03-16T14:59:11.357Z,98134.00
2023-03-16T15:01:39.333Z,98126.00
2023-03-16T15:04:07.615Z,98128.00
2023-03-16T15:06:35.583Z,98124.00
2023-03-16T15:09:03.930Z,98123.00
2023-03-16T15:11:31.792Z,98126.00
2023-03-16T15:14:14.845Z,98121.00
2023-03-16T15:16:43.122Z,98116.00
2023-03-16T15:19:10.922Z,98109.00
2023-03-16T15:21:38.787Z,98120.00
2023-03-16T15:24:07.229Z,98128.00
2023-03-16T15:26:34.886Z,98121.00
2023-03-16T15:29:04.698Z,98125.00
2023-03-16T15:31:32.334Z,98128.00
2023-03-16T15:33:59.964Z,98117.00
2023-03-16T15:36:27.654Z,98118.00
2023-03-16T15:38:56.883Z,98119.00
2023-03-16T15:41:28.302Z,98117.00
2023-03-16T15:44:00.792Z,98116.00
2023-03-16T15:46:29.883Z,98111.00
2023-03-16T15:48:57.563Z,98113.00
2023-03-16T15:51:28.907Z,98104.00
2023-03-16T15:53:59.425Z,98114.00
2023-03-16T15:56:30.250Z,98128.00
2023-03-16T15:59:01.138Z,98123.00
2023-03-16T16:01:34.897Z,98135.00
2023-03-16T16:04:03.433Z,98139.00
2023-03-16T16:06:31.902Z,98133.00
2023-03-16T16:08:59.501Z,98129.00
2023-03-16T16:11:29.195Z,98125.00
2023-03-16T16:13:58.879Z,98121.00
2023-03-16T16:16:29.831Z,98114.00
2023-03-16T16:18:59.061Z,98114.00
2023-03-16T16:21:31.569Z,98107.00
2023-03-16T16:24:01.274Z,98102.00
2023-03-16T16:26:48.217Z,98101.00
2023-03-16T16:29:22.131Z,98095.00
2023-03-16T16:31:51.444Z,98099.00
2023-03-16T16:34:24.269Z,98100.00
2023-03-16T16:36:52.247Z,98098.00
2023-03-16T16:39:19.897Z,98082.00
2023-03-16T16:41:49.130Z,98092.00
2023-03-16T16:44:19.743Z,98090.00
2023-03-16T16:46:50.324Z,98093.00
2023-03-16T16:49:23.687Z,98093.00
2023-03-16T16:51:51.505Z,98090.00
2023-03-16T16:54:21.270Z,98093.00
2023-03-16T16:56:50.754Z,98102.00
2023-03-16T16:59:20.452Z,98097.00
2023-03-16T17:01:50.680Z,98098.00
2023-03-16T17:04:23.369Z,98097.00
2023-03-16T17:06:55.260Z,98096.00
2023-03-16T17:09:23.317Z,98104.00
2023-03-16T17:11:51.503Z,98108.00
2023-03-16T17:14:21.465Z,98098.00
2023-03-16T17:16:50.514Z,98097.00
2023-03-16T17:19:23.214Z,98112.00
2023-03-16T17:21:51.575Z,98119.00
2023-03-16T17:24:19.599Z,98116.00
2023-03-16T17:26:49.674Z,98120.00
2023-03-16T17:29:22.538Z,98115.00
2023-03-16T17:31:51.345Z,98116.00
2023-03-16T17:34:22.321Z,98105.00
2023-03-16T17:36:51.134Z,98104.00
2023-03-16T17:39:20.868Z,98107.00
2023-03-16T17:41:49.571Z,98109.00
2023-03-16T17:44:19.979Z,98110.00
2023-03-16T17:46:47.901Z,98103.00
2023-03-16T17:49:17.645Z,98107.00
2023-03-16T17:51:47.824Z,98105.00
2023-03-16T17:54:15.535Z,98094.00
2023-03-16T17:56:52.750Z,98089.00
2023-03-16T17:59:22.517Z,98090.00
2023-03-16T18:01:50.351Z,98085.00
2023-03-16T18:04:19.549Z,98082.00
2023-03-16T18:06:48.789Z,98087.00
2023-03-16T18:09:17.055Z,98092.00
2023-03-16T18:11:47.656Z,98084.00
2023-03-16T18:14:25.358Z,98088.00
2023-03-16T18:16:54.515Z,98087.00
2023-03-16T18:19:25.337Z,98092.00
2023-03-16T18:21:54.629Z,98096.00
2023-03-16T18:24:25.679Z,98092.00
2023-03-16T18:26:53.489Z,98101.00
2023-03-16T18:29:22.299Z,98100.00
2023-03-16T18:31:59.240Z,98109.00
2023-03-16T18:34:32.016Z,98100.00
2023-03-16T18:37:06.062Z,98082.00
2023-03-16T18:39:34.040Z,98082.00
2023-03-16T18:42:03.179Z,98093.00
2023-03-16T18:44:31.336Z,98088.00
2023-03-16T18:47:03.780Z,98086.00
2023-03-16T18:49:34.278Z,98090.00
2023-03-16T18:52:04.111Z,98087.00
2023-03-16T18:54:35.342Z,98091.00
2023-03-16T18:57:04.297Z,98091.00
2023-03-16T18:59:32.226Z,98083.00
2023-03-16T19:02:00.101Z,98081.00
2023-03-16T19:04:30.210Z,98078.00
2023-03-16T19:06:58.690Z,98077.00
2023-03-16T19:09:29.917Z,98073.00
2023-03-16T19:11:58.529Z,98068.00
2023-03-16T19:14:28.298Z,98076.00
2023-03-16T19:16:56.262Z,98067.00
2023-03-16T19:19:24.977Z,98065.00
2023-03-16T19:21:54.695Z,98067.00
2023-03-16T19:24:26.492Z,98075.00
2023-03-16T19:26:56.493Z,98074.00
2023-03-16T19:29:30.276Z,98077.00
2023-03-16T19:31:58.965Z,98067.00
2023-03-16T19:34:27.548Z,98058.00
2023-03-16T19:36:55.209Z,98054.00
2023-03-16T19:39:22.776Z,98051.00
2023-03-16T19:41:55.349Z,98053.00
2023-03-16T19:44:26.974Z,98060.00
2023-03-16T19:46:55.499Z,98063.00
2023-03-16T19:49:24.768Z,98055.00
2023-03-16T19:51:53.956Z,98058.00
2023-03-16T19:54:23.618Z,98048.00
2023-03-16T19:56:52.438Z,98049.00
2023-03-16T19:59:21.038Z,98041.00
2023-03-16T20:01:50.062Z,98044.00
2023-03-16T20:04:19.739Z,98042.00
2023-03-16T20:06:49.778Z,98037.00
2023-03-16T20:09:18.005Z,98039.00
2023-03-16T20:11:46.662Z,98031.00
2023-03-16T20:14:20.616Z,98034.00
2023-03-16T20:16:48.851Z,98031.00
2023-03-16T20:19:17.865Z,98040.00
2023-03-16T20:21:45.941Z,98032.00
2023-03-16T20:24:16.298Z,98043.00
2023-03-16T20:26:44.957Z,98035.00
2023-03-16T20:29:19.913Z,98043.00
2023-03-16T20:31:48.104Z,98036.00
2023-03-16T20:34:22.408Z,98035.00
2023-03-16T20:36:50.476Z,98043.00
2023-03-16T20:39:18.199Z,98046.00
2023-03-16T20:41:46.002Z,98038.00
2023-03-16T20:44:16.673Z,98038.00
2023-03-16T20:46:44.881Z,98037.00
2023-03-16T20:49:31.346Z,98029.00
2023-03-16T20:51:59.279Z,98035.00
2023-03-16T20:54:27.254Z,98033.00
2023-03-16T20:56:55.034Z,98036.00
2023-03-16T20:59:26.468Z,98030.00
2023-03-16T21:01:55.997Z,98031.00
2023-03-16T21:04:25.600Z,98034.00
2023-03-16T21:06:56.754Z,98036.00
2023-03-16T21:09:24.409Z,98039.00
2023-03-16T21:11:52.322Z,98041.00
2023-03-16T21:14:22.730Z,98048.00
2023-03-16T21:16:51.408Z,98043.00
2023-03-16T21:19:22.794Z,98042.00
2023-03-16T21:21:50.912Z,98040.00
2023-03-16T21:24:19.992Z,98041.00
2023-03-16T21:26:48.263Z,98036.00
2023-03-16T21:29:21.098Z,98032.00
2023-03-16T21:31:49.354Z,98030.00
2023-03-16T21:34:24.177Z,98029.00
2023-03-16T21:36:51.955Z,98032.00
2023-03-16T21:39:22.549Z,98029.00
2023-03-16T21:41:51.074Z,98033.00
2023-03-16T21:44:18.685Z,98036.00
2023-03-16T21:46:47.507Z,98022.00
2023-03-16T21:49:15.770Z,98022.00
2023-03-16T21:51:43.517Z,98021.00
2023-03-16T21:54:14.416Z,98022.00
2023-03-16T21:56:44.674Z,98010.00
2023-03-16T21:59:13.427Z,98008.00
2023-03-16T22:01:58.398Z,98010.00
2023-03-16T22:04:28.520Z,98011.00
2023-03-16T22:06:56.563Z,97999.00
2023-03-16T22:09:28.814Z,97998.00
2023-03-16T22:11:57.944Z,97994.00
2023-03-16T22:14:27.276Z,98001.00
2023-03-16T22:16:55.630Z,97990.00
2023-03-16T22:19:23.411Z,97997.00
2023-03-16T22:21:51.546Z,97994.00
2023-03-16T22:24:21.466Z,97995.00
2023-03-16T22:26:50.745Z,97997.00
2023-03-16T22:29:25.462Z,97991.00
2023-03-16T22:31:56.521Z,97994.00
2023-03-16T22:34:28.841Z,97986.00
2023-03-16T22:36:57.398Z,97992.00
2023-03-16T22:39:25.438Z,97994.00
2023-03-16T22:41:53.398Z,97992.00
2023-03-16T22:44:23.586Z,97989.00
2023-03-16T22:46:51.858Z,97979.00
2023-03-16T22:49:22.219Z,97978.00
2023-03-16T22:51:52.596Z,97974.00
2023-03-16T22:54:23.586Z,97976.00
2023-03-16T22:56:51.572Z,97971.00
2023-03-16T22:59:23.906Z,97969.00
2023-03-16T23:01:51.881Z,97969.00
2023-03-16T23:04:21.707Z,97971.00
2023-03-16T23:06:50.928Z,97971.00
2023-03-16T23:09:20.518Z,97969.00
2023-03-16T23:11:53.613Z,97970.00
2023-03-16T23:14:25.816Z,97968.00
2023-03-16T23:16:53.728Z,97970.00
2023-03-16T23:19:25.519Z,97961.00
2023-03-16T23:21:55.628Z,97956.00
2023-03-16T23:24:23.556Z,97952.00
2023-03-16T23:26:52.357Z,97944.00
2023-03-16T23:29:20.857Z,97957.00
2023-03-16T23:31:51.326Z,97954.00
2023-03-16T23:34:21.330Z,97953.00
2023-03-16T23:36:49.987Z,97944.00
2023-03-16T23:39:17.667Z,97950.00
2023-03-16T23:41:47.700Z,97945.00
2023-03-16T23:44:18.220Z,97939.00
2023-03-16T23:46:46.167Z,97927.00
2023-03-16T23:49:19.192Z,97927.00
2023-03-16T23:51:47.337Z,97938.00
2023-03-16T23:54:19.068Z,97936.00
2023-03-16T23:56:46.736Z,97934.00
2023-03-16T23:59:14.375Z,97940.00
